createdAt,value
2018-02-09T00:00:04.591Z,30.73
2018-02-09T00:02:32.148Z,31.20
2018-02-09T00:04:59.752Z,41.03
2018-02-09T00:07:27.307Z,35.13
2018-02-09T00:09:54.851Z,31.17
2018-02-09T00:12:22.735Z,27.83
2018-02-09T00:14:50.277Z,36.13
2018-02-09T00:17:17.876Z,29.63
2018-02-09T00:19:45.804Z,31.40
2018-02-09T00:22:13.419Z,29.97
2018-02-09T00:24:41.509Z,26.77
2018-02-09T00:27:09.662Z,25.40
2018-02-09T00:29:37.615Z,23.40
2018-02-09T00:32:05.155Z,26.43
2018-02-09T00:34:32.747Z,27.33
2018-02-09T00:37:00.292Z,23.40
2018-02-09T00:39:28.353Z,30.87
2018-02-09T00:41:56.343Z,29.77
2018-02-09T00:44:23.936Z,26.23
2018-02-09T00:46:52.446Z,23.80
2018-02-09T00:49:20.039Z,21.93
2018-02-09T00:51:47.623Z,22.57
2018-02-09T00:54:15.158Z,20.83
2018-02-09T00:56:42.745Z,17.87
2018-02-09T00:59:10.282Z,18.37
2018-02-09T01:01:37.819Z,14.27
2018-02-09T01:04:06.062Z,17.33
2018-02-09T01:06:33.644Z,16.23
2018-02-09T01:09:01.227Z,18.33
2018-02-09T01:11:28.767Z,17.77
2018-02-09T01:13:56.320Z,15.47
2018-02-09T01:16:23.923Z,15.63
2018-02-09T01:18:51.503Z,12.30
2018-02-09T01:21:19.101Z,13.60
2018-02-09T01:23:46.652Z,15.27
2018-02-09T01:26:14.183Z,14.53
2018-02-09T01:28:41.771Z,11.53
2018-02-09T01:31:09.302Z,12.80
2018-02-09T01:33:37.436Z,14.87
2018-02-09T01:36:04.984Z,15.30
2018-02-09T01:38:32.514Z,13.43
2018-02-09T01:41:00.096Z,13.83
2018-02-09T01:43:27.639Z,12.97
2018-02-09T01:45:55.227Z,10.73
2018-02-09T01:48:23.163Z,11.50
2018-02-09T01:50:50.707Z,12.33
2018-02-09T01:53:18.294Z,11.57
2018-02-09T01:55:45.843Z,13.97
2018-02-09T01:58:13.427Z,10.67
2018-02-09T02:00:41.004Z,11.23
2018-02-09T02:03:08.589Z,11.23
2018-02-09T02:05:36.131Z,9.63
2018-02-09T02:08:04.086Z,10.27
2018-02-09T02:10:31.630Z,14.50
2018-02-09T02:12:59.162Z,9.87
2018-02-09T02:15:27.503Z,10.97
2018-02-09T02:17:55.083Z,8.03
2018-02-09T02:20:22.651Z,9.93
2018-02-09T02:22:50.191Z,14.93
2018-02-09T02:25:17.769Z,11.13
2018-02-09T02:27:45.312Z,11.43
2018-02-09T02:30:12.896Z,9.10
2018-02-09T02:32:41.516Z,12.20
2018-02-09T02:35:09.067Z,13.27
2018-02-09T02:37:36.896Z,11.90
2018-02-09T02:40:04.440Z,12.77
2018-02-09T02:42:32.670Z,12.83
2018-02-09T02:45:00.255Z,11.87
2018-02-09T02:47:28.506Z,14.13
2018-02-09T02:49:56.207Z,12.60
2018-02-09T02:52:23.796Z,14.13
2018-02-09T02:54:51.331Z,12.33
2018-02-09T02:57:19.521Z,14.17
2018-02-09T02:59:47.502Z,13.80
2018-02-09T03:02:15.057Z,14.20
2018-02-09T03:04:42.645Z,13.00
2018-02-09T03:07:10.218Z,17.17
2018-02-09T03:09:37.802Z,13.30
2018-02-09T03:12:05.343Z,16.87
2018-02-09T03:14:32.878Z,11.30
2018-02-09T03:17:00.442Z,8.07
2018-02-09T03:19:28.015Z,9.23
2018-02-09T03:21:56.101Z,12.00
2018-02-09T03:24:23.626Z,9.27
2018-02-09T03:26:51.204Z,8.97
2018-02-09T03:29:18.748Z,10.17
2018-02-09T03:31:46.318Z,11.50
2018-02-09T03:34:14.353Z,9.57
2018-02-09T03:36:41.942Z,12.97
2018-02-09T03:39:09.483Z,12.73
2018-02-09T03:41:37.464Z,10.37
2018-02-09T03:44:05.008Z,15.70
2018-02-09T03:46:32.591Z,11.60
2018-02-09T03:49:00.136Z,11.67
2018-02-09T03:51:28.085Z,10.57
2018-02-09T03:53:55.662Z,10.70
2018-02-09T03:56:23.208Z,11.43
2018-02-09T03:58:50.782Z,12.27
2018-02-09T04:01:18.723Z,11.07
2018-02-09T04:03:46.263Z,11.27
2018-02-09T04:06:13.847Z,12.73
2018-02-09T04:08:41.400Z,12.67
2018-02-09T04:11:08.986Z,11.80
2018-02-09T04:13:36.566Z,11.03
2018-02-09T04:16:04.116Z,10.60
2018-02-09T04:18:31.700Z,9.40
2018-02-09T04:20:59.646Z,11.70
2018-02-09T04:23:27.218Z,8.60
2018-02-09T04:25:55.252Z,8.70
2018-02-09T04:28:22.839Z,11.90
2018-02-09T04:30:50.370Z,8.63
2018-02-09T04:33:18.310Z,10.53
2018-02-09T04:35:46.079Z,12.30
2018-02-09T04:38:13.614Z,9.90
2018-02-09T04:40:41.187Z,12.17
2018-02-09T04:43:08.779Z,12.40
2018-02-09T04:45:36.309Z,12.07
2018-02-09T04:48:03.928Z,12.17
2018-02-09T04:50:31.474Z,11.70
2018-02-09T04:52:59.024Z,8.17
2018-02-09T04:55:26.627Z,10.27
2018-02-09T04:57:54.166Z,11.03
2018-02-09T05:00:21.757Z,13.33
2018-02-09T05:02:49.321Z,11.73
2018-02-09T05:05:16.989Z,13.53
2018-02-09T05:07:44.521Z,13.27
2018-02-09T05:10:12.072Z,13.67
2018-02-09T05:12:40.113Z,15.27
2018-02-09T05:15:07.676Z,11.73
2018-02-09T05:17:35.826Z,15.83
2018-02-09T05:20:03.380Z,12.47
2018-02-09T05:22:30.954Z,15.20
2018-02-09T05:24:58.500Z,15.53
2018-02-09T05:27:26.087Z,14.47
2018-02-09T05:29:53.904Z,10.70
2018-02-09T05:32:21.594Z,15.67
2018-02-09T05:34:49.183Z,14.37
2018-02-09T05:37:16.780Z,14.00
2018-02-09T05:39:44.564Z,13.57
2018-02-09T05:42:12.106Z,14.53
2018-02-09T05:44:39.704Z,18.10
2018-02-09T05:47:07.270Z,22.73
2018-02-09T05:49:34.815Z,20.60
2018-02-09T05:52:02.408Z,15.53
2018-02-09T05:54:29.963Z,18.37
2018-02-09T05:56:57.864Z,22.13
2018-02-09T05:59:25.838Z,19.77
2018-02-09T06:01:54.099Z,18.23
2018-02-09T06:04:21.924Z,21.33
2018-02-09T06:06:49.530Z,25.62
2018-02-09T06:09:17.091Z,25.23
2018-02-09T06:11:44.647Z,29.90
2018-02-09T06:14:12.258Z,20.53
2018-02-09T06:16:39.959Z,21.25
2018-02-09T06:19:07.564Z,21.80
2018-02-09T06:21:35.122Z,26.73
2018-02-09T06:24:02.779Z,20.33
2018-02-09T06:26:31.220Z,22.67
2018-02-09T06:28:58.777Z,17.65
2018-02-09T06:31:27.334Z,17.07
2018-02-09T06:33:54.894Z,16.58
2018-02-09T06:36:22.488Z,15.88
2018-02-09T06:38:50.098Z,17.60
2018-02-09T06:41:17.638Z,14.70
2018-02-09T06:43:45.466Z,13.03
2018-02-09T06:46:13.078Z,14.43
2018-02-09T06:48:41.958Z,15.32
2018-02-09T06:51:09.543Z,14.27
2018-02-09T06:53:38.789Z,13.88
2018-02-09T06:56:06.813Z,24.57
2018-02-09T06:58:35.170Z,15.95
2018-02-09T07:01:02.842Z,13.63
2018-02-09T07:03:30.703Z,17.17
2018-02-09T07:05:58.263Z,18.53
2018-02-09T07:08:26.861Z,11.93
2018-02-09T07:10:54.403Z,14.10
2018-02-09T07:13:21.996Z,16.58
2018-02-09T07:15:49.864Z,14.03
2018-02-09T07:18:17.406Z,13.73
2018-02-09T07:20:45.772Z,14.40
2018-02-09T07:23:13.326Z,18.43
2018-02-09T07:25:40.917Z,19.77
2018-02-09T07:28:08.517Z,18.47
2018-02-09T07:30:36.116Z,18.45
2018-02-09T07:33:03.877Z,14.50
2018-02-09T07:35:31.844Z,15.33
2018-02-09T07:38:00.046Z,13.25
2018-02-09T07:40:27.595Z,9.83
2018-02-09T07:42:55.314Z,16.53
2018-02-09T07:45:22.915Z,10.17
2018-02-09T07:47:50.467Z,10.93
2018-02-09T07:50:19.009Z,9.27
2018-02-09T07:52:46.604Z,12.75
2018-02-09T07:55:15.258Z,12.87
2018-02-09T07:57:42.859Z,12.10
2018-02-09T08:00:11.269Z,14.77
2018-02-09T08:02:40.314Z,9.83
2018-02-09T08:05:07.868Z,12.90
2018-02-09T08:07:35.641Z,13.43
2018-02-09T08:10:03.240Z,18.97
2018-02-09T08:12:30.823Z,15.77
2018-02-09T08:14:58.362Z,13.50
2018-02-09T08:17:25.959Z,15.88
2018-02-09T08:19:53.524Z,15.80
2018-02-09T08:22:21.466Z,15.90
2018-02-09T08:24:49.063Z,16.80
2018-02-09T08:27:16.619Z,18.63
2018-02-09T08:29:44.240Z,18.27
2018-02-09T08:32:11.846Z,15.55
2018-02-09T08:34:39.435Z,14.00
2018-02-09T08:37:07.224Z,13.70
2018-02-09T08:39:34.771Z,11.63
2018-02-09T08:42:02.311Z,12.30
2018-02-09T08:44:29.898Z,8.53
2018-02-09T08:46:57.488Z,10.63
2018-02-09T08:49:25.074Z,10.70
2018-02-09T08:51:52.672Z,8.13
2018-02-09T08:54:20.987Z,8.60
2018-02-09T08:56:48.588Z,8.73
2018-02-09T08:59:16.211Z,8.97
2018-02-09T09:01:43.764Z,8.40
2018-02-09T09:04:11.384Z,10.25
2018-02-09T09:06:38.952Z,9.83
2018-02-09T09:09:06.524Z,8.23
2018-02-09T09:11:34.107Z,9.53
2018-02-09T09:14:01.649Z,8.23
2018-02-09T09:16:29.210Z,9.03
2018-02-09T09:18:58.240Z,8.83
2018-02-09T09:21:25.830Z,8.73
2018-02-09T09:23:53.432Z,8.57
2018-02-09T09:26:21.055Z,9.32
2018-02-09T09:28:48.621Z,10.07
2018-02-09T09:31:16.215Z,13.20
2018-02-09T09:33:43.826Z,14.98
2018-02-09T09:36:11.761Z,14.93
2018-02-09T09:38:39.575Z,11.32
2018-02-09T09:41:07.186Z,11.20
2018-02-09T09:43:34.726Z,8.20
2018-02-09T09:46:03.101Z,9.17
2018-02-09T09:48:30.730Z,10.90
2018-02-09T09:50:58.296Z,8.50
2018-02-09T09:53:26.122Z,10.17
2018-02-09T09:55:53.784Z,7.60
2018-02-09T09:58:21.324Z,9.13
2018-02-09T10:00:48.867Z,10.00
2018-02-09T10:03:16.448Z,13.43
2018-02-09T10:05:44.095Z,10.63
2018-02-09T10:08:12.491Z,14.67
2018-02-09T10:10:40.080Z,7.77
2018-02-09T10:13:07.652Z,9.30
2018-02-09T10:15:35.234Z,9.65
2018-02-09T10:18:03.110Z,12.67
2018-02-09T10:20:30.700Z,13.77
2018-02-09T10:22:58.336Z,12.02
2018-02-09T10:25:25.884Z,10.30
2018-02-09T10:27:53.475Z,9.40
2018-02-09T10:30:21.270Z,9.77
2018-02-09T10:32:48.877Z,8.53
2018-02-09T10:35:18.097Z,9.77
2018-02-09T10:37:46.026Z,9.70
2018-02-09T10:40:13.676Z,11.73
2018-02-09T10:42:41.272Z,12.30
2018-02-09T10:45:08.832Z,10.47
2018-02-09T10:47:36.452Z,8.98
2018-02-09T10:50:05.130Z,10.30
2018-02-09T10:52:32.681Z,7.90
2018-02-09T10:55:00.275Z,9.75
2018-02-09T10:57:27.815Z,8.63
2018-02-09T10:59:55.894Z,8.00
2018-02-09T11:02:23.488Z,7.87
2018-02-09T11:04:51.409Z,7.33
2018-02-09T11:07:19.279Z,6.25
2018-02-09T11:09:46.850Z,7.93
2018-02-09T11:12:14.478Z,7.03
2018-02-09T11:14:42.046Z,10.85
2018-02-09T11:17:09.639Z,13.40
2018-02-09T11:19:37.205Z,11.07
2018-02-09T11:22:05.288Z,12.90
2018-02-09T11:24:32.836Z,8.90
2018-02-09T11:27:00.426Z,10.53
2018-02-09T11:29:28.076Z,9.02
2018-02-09T11:31:55.640Z,10.37
2018-02-09T11:34:23.497Z,11.43
2018-02-09T11:36:51.731Z,11.57
2018-02-09T11:39:20.009Z,10.10
2018-02-09T11:41:47.609Z,9.87
2018-02-09T11:44:15.429Z,10.33
2018-02-09T11:46:43.023Z,10.27
2018-02-09T11:49:10.629Z,12.55
2018-02-09T11:51:38.176Z,9.00
2018-02-09T11:54:05.745Z,11.30
2018-02-09T11:56:33.320Z,21.03
2018-02-09T11:59:00.915Z,7.33
2018-02-09T12:01:28.510Z,10.40
2018-02-09T12:03:56.479Z,8.05
2018-02-09T12:06:24.412Z,6.27
2018-02-09T12:08:52.007Z,29.57
2018-02-09T12:11:19.658Z,16.57
2018-02-09T12:13:47.214Z,11.43
2018-02-09T12:16:15.164Z,16.10
2018-02-09T12:18:42.704Z,14.80
2018-02-09T12:21:10.249Z,9.73
2018-02-09T12:23:38.121Z,10.17
2018-02-09T12:26:05.756Z,11.83
2018-02-09T12:28:33.353Z,7.20
2018-02-09T12:31:01.332Z,7.43
2018-02-09T12:33:29.878Z,8.67
2018-02-09T12:35:57.476Z,11.40
2018-02-09T12:38:25.317Z,12.67
2018-02-09T12:40:52.863Z,15.63
2018-02-09T12:43:20.419Z,14.40
2018-02-09T12:45:48.027Z,25.15
2018-02-09T12:48:15.803Z,19.60
2018-02-09T12:50:43.408Z,13.87
2018-02-09T12:53:10.950Z,14.77
2018-02-09T12:55:38.500Z,19.77
2018-02-09T12:58:06.090Z,16.03
2018-02-09T13:00:33.728Z,18.13
2018-02-09T13:03:01.273Z,16.62
2018-02-09T13:05:28.872Z,26.52
2018-02-09T13:07:56.471Z,16.77
2018-02-09T13:10:24.052Z,7.20
2018-02-09T13:13:03.224Z,10.03
2018-02-09T13:15:31.437Z,14.73
2018-02-09T13:17:58.983Z,13.33
2018-02-09T13:20:26.593Z,10.57
2018-02-09T13:23:05.965Z,11.43
2018-02-09T13:25:33.555Z,8.68
2018-02-09T13:28:01.099Z,12.87
2018-02-09T13:30:28.705Z,18.53
2018-02-09T13:33:08.003Z,12.93
2018-02-09T13:35:35.860Z,14.63
2018-02-09T13:38:03.424Z,11.10
2018-02-09T13:40:30.966Z,13.03
2018-02-09T13:42:59.594Z,12.57
2018-02-09T13:45:27.146Z,9.02
2018-02-09T13:47:54.746Z,13.80
2018-02-09T13:50:22.286Z,11.48
2018-02-09T13:52:49.912Z,15.67
2018-02-09T13:55:17.451Z,10.50
2018-02-09T13:57:45.011Z,9.47
2018-02-09T14:00:12.591Z,9.23
2018-02-09T14:02:41.080Z,9.40
2018-02-09T14:05:09.020Z,10.77
2018-02-09T14:07:36.580Z,11.35
2018-02-09T14:10:04.170Z,12.30
2018-02-09T14:12:32.635Z,13.07
2018-02-09T14:15:00.227Z,11.77
2018-02-09T14:17:27.773Z,7.93
2018-02-09T14:19:55.363Z,10.35
2018-02-09T14:22:23.065Z,9.33
2018-02-09T14:24:50.611Z,11.10
2018-02-09T14:27:18.191Z,9.95
2018-02-09T14:29:45.734Z,8.63
2018-02-09T14:32:14.313Z,10.00
2018-02-09T14:34:41.856Z,12.93
2018-02-09T14:37:09.405Z,13.07
2018-02-09T14:39:36.989Z,10.37
2018-02-09T14:42:05.419Z,12.00
2018-02-09T14:44:32.960Z,11.90
2018-02-09T14:47:00.552Z,12.33
2018-02-09T14:49:28.233Z,9.47
2018-02-09T14:51:55.974Z,7.40
2018-02-09T14:54:23.524Z,11.03
2018-02-09T14:56:51.208Z,6.00
2018-02-09T14:59:18.899Z,9.90
2018-02-09T15:01:46.711Z,10.60
2018-02-09T15:04:14.304Z,13.00
2018-02-09T15:06:41.854Z,8.13
2018-02-09T15:09:09.441Z,13.47
2018-02-09T15:11:38.723Z,14.07
2018-02-09T15:14:06.893Z,13.87
2018-02-09T15:16:34.438Z,12.00
2018-02-09T15:19:02.051Z,9.13
2018-02-09T15:21:29.599Z,9.97
2018-02-09T15:23:57.528Z,10.43
2018-02-09T15:26:25.124Z,12.23
2018-02-09T15:28:52.672Z,8.63
2018-02-09T15:31:20.263Z,8.27
2018-02-09T15:33:47.868Z,7.97
2018-02-09T15:36:15.971Z,8.43
2018-02-09T15:38:43.519Z,10.33
2018-02-09T15:41:11.107Z,12.77
2018-02-09T15:43:38.978Z,9.03
2018-02-09T15:46:06.523Z,9.23
2018-02-09T15:48:34.113Z,5.80
2018-02-09T15:51:01.710Z,7.70
2018-02-09T15:53:29.246Z,8.90
2018-02-09T15:55:56.812Z,11.67
2018-02-09T15:58:25.344Z,9.53
2018-02-09T16:00:53.488Z,13.53
2018-02-09T16:03:21.839Z,9.90
2018-02-09T16:05:49.436Z,11.40
2018-02-09T16:08:18.944Z,10.20
2018-02-09T16:10:46.544Z,12.50
2018-02-09T16:13:15.565Z,9.50
2018-02-09T16:15:43.359Z,11.23
2018-02-09T16:18:11.597Z,8.10
2018-02-09T16:20:39.131Z,9.00
2018-02-09T16:23:07.134Z,9.73
2018-02-09T16:25:35.542Z,8.90
2018-02-09T16:28:03.916Z,8.87
2018-02-09T16:30:31.658Z,9.00
2018-02-09T16:32:59.253Z,17.50
2018-02-09T16:35:27.280Z,16.70
2018-02-09T16:37:54.873Z,25.27
2018-02-09T16:40:22.488Z,42.50
2018-02-09T16:42:51.096Z,32.30
2018-02-09T16:45:18.638Z,80.10
2018-02-09T16:47:46.947Z,46.80
2018-02-09T16:50:14.899Z,29.73
2018-02-09T16:52:42.447Z,31.40
2018-02-09T16:55:10.031Z,56.97
2018-02-09T16:57:37.631Z,63.07
2018-02-09T17:00:05.186Z,68.83
2018-02-09T17:02:33.052Z,49.93
2018-02-09T17:05:00.643Z,44.73
2018-02-09T17:07:28.550Z,40.97
2018-02-09T17:09:56.111Z,52.50
2018-02-09T17:12:25.339Z,66.07
2018-02-09T17:14:52.935Z,79.27
2018-02-09T17:17:20.796Z,56.43
2018-02-09T17:19:48.392Z,57.73
2018-02-09T17:22:15.947Z,61.13
2018-02-09T17:24:43.535Z,64.20
2018-02-09T17:27:11.100Z,75.77
2018-02-09T17:29:38.879Z,62.03
2018-02-09T17:32:06.448Z,66.30
2018-02-09T17:34:34.233Z,66.30
2018-02-09T17:37:01.790Z,59.90
2018-02-09T17:39:30.300Z,66.67
2018-02-09T17:41:57.847Z,81.00
2018-02-09T17:44:26.161Z,67.73
2018-02-09T17:46:54.150Z,57.50
2018-02-09T17:49:22.452Z,62.70
2018-02-09T17:51:50.538Z,50.73
2018-02-09T17:54:18.089Z,50.60
2018-02-09T17:56:45.634Z,45.97
2018-02-09T17:59:13.872Z,51.87
2018-02-09T18:01:42.183Z,56.23
2018-02-09T18:04:09.736Z,41.93
2018-02-09T18:06:39.884Z,48.93
2018-02-09T18:09:08.714Z,42.07
2018-02-09T18:11:36.526Z,41.97
2018-02-09T18:14:04.342Z,42.80
2018-02-09T18:16:32.007Z,42.30
2018-02-09T18:19:00.360Z,41.87
2018-02-09T18:21:27.974Z,39.70
2018-02-09T18:23:55.956Z,43.77
2018-02-09T18:26:24.129Z,45.10
2018-02-09T18:28:51.727Z,47.67
2018-02-09T18:31:19.748Z,48.57
2018-02-09T18:33:47.741Z,36.03
2018-02-09T18:36:15.362Z,41.10
2018-02-09T18:38:43.444Z,41.80
2018-02-09T18:41:11.591Z,41.50
2018-02-09T18:43:39.198Z,48.77
2018-02-09T18:46:07.743Z,47.40
2018-02-09T18:48:36.171Z,51.47
2018-02-09T18:51:04.854Z,49.47
2018-02-09T18:53:32.457Z,50.73
2018-02-09T18:56:00.953Z,53.00
2018-02-09T18:58:28.763Z,51.70
2018-02-09T19:00:57.294Z,47.57
2018-02-09T19:03:25.441Z,52.77
2018-02-09T19:05:53.429Z,57.37
2018-02-09T19:08:21.015Z,51.07
2018-02-09T19:10:48.612Z,42.93
2018-02-09T19:13:16.212Z,45.37
2018-02-09T19:15:44.000Z,53.57
2018-02-09T19:18:11.604Z,50.17
2018-02-09T19:20:39.196Z,45.80
2018-02-09T19:23:07.110Z,63.17
2018-02-09T19:25:36.019Z,44.60
2018-02-09T19:28:03.843Z,41.73
2018-02-09T19:30:32.206Z,36.57
2018-02-09T19:33:00.634Z,48.60
2018-02-09T19:35:29.417Z,40.90
2018-02-09T19:37:58.696Z,31.33
2018-02-09T19:40:27.353Z,33.20
2018-02-09T19:42:55.100Z,31.93
2018-02-09T19:45:22.719Z,32.43
2018-02-09T19:47:50.286Z,35.37
2018-02-09T19:50:18.557Z,33.40
2018-02-09T19:52:46.185Z,30.10
2018-02-09T19:55:13.748Z,26.90
2018-02-09T19:57:41.309Z,30.57
2018-02-09T20:00:08.896Z,26.47
2018-02-09T20:02:36.501Z,29.97
2018-02-09T20:05:04.474Z,27.87
2018-02-09T20:07:32.357Z,30.43
2018-02-09T20:09:59.957Z,26.93
2018-02-09T20:12:27.774Z,28.87
2018-02-09T20:14:55.359Z,27.63
2018-02-09T20:17:22.971Z,31.13
2018-02-09T20:19:50.528Z,38.33
2018-02-09T20:22:18.463Z,68.23
2018-02-09T20:24:46.753Z,74.47
2018-02-09T20:27:14.343Z,84.83
2018-02-09T20:29:42.737Z,64.17
2018-02-09T20:32:11.220Z,51.50
2018-02-09T20:34:39.211Z,58.77
2018-02-09T20:37:07.408Z,110.50
2018-02-09T20:39:34.960Z,115.83
2018-02-09T20:42:02.549Z,126.50
2018-02-09T20:44:30.143Z,117.80
2018-02-09T20:46:58.213Z,96.07
2018-02-09T20:49:25.795Z,90.13
2018-02-09T20:51:53.385Z,74.43
2018-02-09T20:54:21.784Z,60.20
2018-02-09T20:56:49.373Z,51.17
2018-02-09T20:59:16.944Z,54.80
2018-02-09T21:01:46.280Z,54.43
2018-02-09T21:04:13.827Z,57.37
2018-02-09T21:06:41.363Z,48.47
2018-02-09T21:09:08.955Z,44.93
2018-02-09T21:11:36.508Z,49.47
2018-02-09T21:14:04.094Z,46.70
2018-02-09T21:16:32.252Z,42.47
2018-02-09T21:18:59.800Z,41.70
2018-02-09T21:21:27.770Z,35.07
2018-02-09T21:23:56.142Z,39.37
2018-02-09T21:26:24.023Z,40.60
2018-02-09T21:28:51.669Z,41.70
2018-02-09T21:31:20.542Z,39.90
2018-02-09T21:33:48.100Z,34.53
2018-02-09T21:36:16.049Z,34.47
2018-02-09T21:38:43.672Z,34.93
2018-02-09T21:41:12.103Z,37.63
2018-02-09T21:43:40.447Z,31.10
2018-02-09T21:46:09.410Z,36.17
2018-02-09T21:48:37.015Z,36.03
2018-02-09T21:51:05.190Z,31.43
2018-02-09T21:53:33.955Z,34.00
2018-02-09T21:56:01.787Z,30.77
2018-02-09T21:58:30.537Z,37.10
2018-02-09T22:00:58.550Z,33.33
2018-02-09T22:03:26.114Z,35.33
2018-02-09T22:05:54.284Z,34.73
2018-02-09T22:08:21.912Z,30.60
2018-02-09T22:10:49.475Z,33.73
2018-02-09T22:13:17.113Z,35.50
2018-02-09T22:15:44.845Z,30.60
2018-02-09T22:18:12.735Z,34.27
2018-02-09T22:20:40.328Z,29.50
2018-02-09T22:23:07.864Z,25.43
2018-02-09T22:25:35.456Z,28.33
2018-02-09T22:28:03.424Z,27.17
2018-02-09T22:30:31.706Z,33.47
2018-02-09T22:32:59.308Z,29.80
2018-02-09T22:35:26.864Z,28.37
2018-02-09T22:37:54.960Z,27.50
2018-02-09T22:40:22.774Z,25.60
2018-02-09T22:42:50.324Z,25.60
2018-02-09T22:45:17.912Z,24.07
2018-02-09T22:47:45.468Z,25.17
2018-02-09T22:50:13.067Z,23.93
2018-02-09T22:52:40.611Z,24.47
2018-02-09T22:55:08.220Z,22.70
2018-02-09T22:57:35.767Z,24.57
2018-02-09T23:00:03.600Z,21.90
2018-02-09T23:02:31.201Z,25.40
2018-02-09T23:04:58.752Z,24.03
2018-02-09T23:07:26.503Z,26.03
2018-02-09T23:09:54.090Z,23.03
2018-02-09T23:12:21.633Z,24.87
2018-02-09T23:14:49.180Z,23.57
2018-02-09T23:17:16.981Z,24.97
2018-02-09T23:19:44.923Z,24.27
2018-02-09T23:22:12.519Z,25.20
2018-02-09T23:24:40.354Z,26.87
2018-02-09T23:27:08.095Z,23.57
2018-02-09T23:29:35.675Z,27.43
2018-02-09T23:32:03.223Z,24.37
2018-02-09T23:34:30.758Z,24.10
2018-02-09T23:36:58.342Z,27.57
2018-02-09T23:39:25.887Z,27.87
2018-02-09T23:41:53.487Z,28.50
2018-02-09T23:44:21.578Z,23.50
2018-02-09T23:46:50.193Z,30.33
2018-02-09T23:49:17.734Z,23.90
2018-02-09T23:51:45.314Z,26.87
2018-02-09T23:54:12.850Z,27.93
2018-02-09T23:56:40.435Z,29.00
2018-02-09T23:59:07.987Z,27.63
